sensor_id;sensor_type;location;lat;lon;timestamp;P1;durP1;ratioP1;P2;durP2;ratioP2
16892;SDS011;8563;52.242;9.098;2023-11-18T00:02:08;17.70;;;14.93;;
16892;SDS011;8563;52.242;9.098;2023-11-18T00:04:40;18.77;;;15.53;;
16892;SDS011;8563;52.242;9.098;2023-11-18T00:07:13;20.33;;;17.67;;
16892;SDS011;8563;52.242;9.098;2023-11-18T00:09:45;17.70;;;15.10;;
16892;SDS011;8563;52.242;9.098;2023-11-18T00:12:18;19.67;;;15.27;;
16892;SDS011;8563;52.242;9.098;2023-11-18T00:14:52;19.63;;;17.13;;
16892;SDS011;8563;52.242;9.098;2023-11-18T00:17:24;19.77;;;17.67;;
16892;SDS011;8563;52.242;9.098;2023-11-18T00:19:56;19.00;;;16.13;;
16892;SDS011;8563;52.242;9.098;2023-11-18T00:22:32;18.20;;;16.27;;
16892;SDS011;8563;52.242;9.098;2023-11-18T00:25:05;20.10;;;16.83;;
16892;SDS011;8563;52.242;9.098;2023-11-18T00:27:38;19.80;;;16.90;;
16892;SDS011;8563;52.242;9.098;2023-11-18T00:30:12;30.07;;;19.23;;
16892;SDS011;8563;52.242;9.098;2023-11-18T00:32:44;23.43;;;18.03;;
16892;SDS011;8563;52.242;9.098;2023-11-18T00:35:16;25.17;;;18.17;;
16892;SDS011;8563;52.242;9.098;2023-11-18T00:37:49;26.00;;;18.57;;
16892;SDS011;8563;52.242;9.098;2023-11-18T00:40:21;22.30;;;17.70;;
16892;SDS011;8563;52.242;9.098;2023-11-18T00:42:53;22.40;;;18.67;;
16892;SDS011;8563;52.242;9.098;2023-11-18T00:45:27;26.10;;;18.87;;
16892;SDS011;8563;52.242;9.098;2023-11-18T00:48:01;21.10;;;17.83;;
16892;SDS011;8563;52.242;9.098;2023-11-18T00:50:35;21.67;;;16.83;;
16892;SDS011;8563;52.242;9.098;2023-11-18T00:53:07;21.73;;;17.63;;
16892;SDS011;8563;52.242;9.098;2023-11-18T00:55:40;23.40;;;18.97;;
16892;SDS011;8563;52.242;9.098;2023-11-18T00:58:12;22.97;;;18.77;;
16892;SDS011;8563;52.242;9.098;2023-11-18T01:00:46;22.23;;;17.77;;
16892;SDS011;8563;52.242;9.098;2023-11-18T01:03:18;24.57;;;18.27;;
16892;SDS011;8563;52.242;9.098;2023-11-18T01:05:51;24.67;;;18.87;;
16892;SDS011;8563;52.242;9.098;2023-11-18T01:08:23;28.50;;;21.83;;
16892;SDS011;8563;52.242;9.098;2023-11-18T01:10:56;25.37;;;18.40;;
16892;SDS011;8563;52.242;9.098;2023-11-18T01:13:28;24.50;;;19.67;;
16892;SDS011;8563;52.242;9.098;2023-11-18T01:16:02;24.53;;;19.37;;
16892;SDS011;8563;52.242;9.098;2023-11-18T01:18:35;23.77;;;19.53;;
16892;SDS011;8563;52.242;9.098;2023-11-18T01:21:09;25.37;;;19.13;;
16892;SDS011;8563;52.242;9.098;2023-11-18T01:23:41;28.33;;;21.20;;
16892;SDS011;8563;52.242;9.098;2023-11-18T01:26:15;23.87;;;19.23;;
16892;SDS011;8563;52.242;9.098;2023-11-18T01:28:47;31.10;;;21.63;;
16892;SDS011;8563;52.242;9.098;2023-11-18T01:31:21;24.90;;;19.73;;
16892;SDS011;8563;52.242;9.098;2023-11-18T01:33:53;25.97;;;19.63;;
16892;SDS011;8563;52.242;9.098;2023-11-18T01:36:26;24.60;;;19.33;;
16892;SDS011;8563;52.242;9.098;2023-11-18T01:38:58;26.63;;;20.50;;
16892;SDS011;8563;52.242;9.098;2023-11-18T01:41:31;23.60;;;18.53;;
16892;SDS011;8563;52.242;9.098;2023-11-18T01:44:03;26.07;;;19.67;;
16892;SDS011;8563;52.242;9.098;2023-11-18T01:46:37;27.53;;;21.13;;
16892;SDS011;8563;52.242;9.098;2023-11-18T01:49:11;30.10;;;22.53;;
16892;SDS011;8563;52.242;9.098;2023-11-18T01:51:44;28.43;;;21.57;;
16892;SDS011;8563;52.242;9.098;2023-11-18T01:54:17;29.13;;;20.63;;
16892;SDS011;8563;52.242;9.098;2023-11-18T01:56:50;31.00;;;22.03;;
16892;SDS011;8563;52.242;9.098;2023-11-18T01:59:23;33.60;;;23.30;;
16892;SDS011;8563;52.242;9.098;2023-11-18T02:01:57;31.00;;;23.13;;
16892;SDS011;8563;52.242;9.098;2023-11-18T02:04:30;30.40;;;22.57;;
16892;SDS011;8563;52.242;9.098;2023-11-18T02:07:02;27.50;;;20.67;;
16892;SDS011;8563;52.242;9.098;2023-11-18T02:09:39;29.00;;;22.93;;
16892;SDS011;8563;52.242;9.098;2023-11-18T02:12:15;27.83;;;21.27;;
16892;SDS011;8563;52.242;9.098;2023-11-18T02:14:50;34.60;;;23.10;;
16892;SDS011;8563;52.242;9.098;2023-11-18T02:17:25;40.37;;;25.67;;
16892;SDS011;8563;52.242;9.098;2023-11-18T02:19:58;35.47;;;24.47;;
16892;SDS011;8563;52.242;9.098;2023-11-18T02:22:31;31.07;;;22.47;;
16892;SDS011;8563;52.242;9.098;2023-11-18T02:25:04;39.57;;;25.77;;
16892;SDS011;8563;52.242;9.098;2023-11-18T02:27:41;35.50;;;24.77;;
16892;SDS011;8563;52.242;9.098;2023-11-18T02:30:14;34.13;;;23.17;;
16892;SDS011;8563;52.242;9.098;2023-11-18T02:32:47;29.63;;;21.80;;
16892;SDS011;8563;52.242;9.098;2023-11-18T02:35:23;32.93;;;23.70;;
16892;SDS011;8563;52.242;9.098;2023-11-18T02:37:57;31.90;;;22.70;;
16892;SDS011;8563;52.242;9.098;2023-11-18T02:40:32;32.60;;;23.57;;
16892;SDS011;8563;52.242;9.098;2023-11-18T02:43:07;32.17;;;22.83;;
16892;SDS011;8563;52.242;9.098;2023-11-18T02:45:40;32.23;;;21.40;;
16892;SDS011;8563;52.242;9.098;2023-11-18T02:48:13;37.37;;;23.80;;
16892;SDS011;8563;52.242;9.098;2023-11-18T02:50:45;36.27;;;24.43;;
16892;SDS011;8563;52.242;9.098;2023-11-18T02:53:18;31.20;;;21.70;;
16892;SDS011;8563;52.242;9.098;2023-11-18T02:55:50;32.47;;;21.23;;
16892;SDS011;8563;52.242;9.098;2023-11-18T02:58:24;31.73;;;21.80;;
16892;SDS011;8563;52.242;9.098;2023-11-18T03:00:56;38.07;;;24.73;;
16892;SDS011;8563;52.242;9.098;2023-11-18T03:03:30;39.07;;;24.83;;
16892;SDS011;8563;52.242;9.098;2023-11-18T03:06:02;36.60;;;24.37;;
16892;SDS011;8563;52.242;9.098;2023-11-18T03:08:36;40.50;;;25.97;;
16892;SDS011;8563;52.242;9.098;2023-11-18T03:11:08;36.97;;;24.23;;
16892;SDS011;8563;52.242;9.098;2023-11-18T03:13:42;37.43;;;23.67;;
16892;SDS011;8563;52.242;9.098;2023-11-18T03:16:15;40.00;;;26.13;;
16892;SDS011;8563;52.242;9.098;2023-11-18T03:18:47;37.30;;;24.03;;
16892;SDS011;8563;52.242;9.098;2023-11-18T03:21:20;36.93;;;24.70;;
16892;SDS011;8563;52.242;9.098;2023-11-18T03:23:52;36.73;;;25.53;;
16892;SDS011;8563;52.242;9.098;2023-11-18T03:26:24;36.37;;;23.53;;
16892;SDS011;8563;52.242;9.098;2023-11-18T03:28:58;36.77;;;24.53;;
16892;SDS011;8563;52.242;9.098;2023-11-18T03:31:34;33.37;;;23.03;;
16892;SDS011;8563;52.242;9.098;2023-11-18T03:34:06;32.60;;;22.53;;
16892;SDS011;8563;52.242;9.098;2023-11-18T03:36:39;34.47;;;22.10;;
16892;SDS011;8563;52.242;9.098;2023-11-18T03:39:11;38.33;;;23.40;;
16892;SDS011;8563;52.242;9.098;2023-11-18T03:41:44;38.33;;;24.47;;
16892;SDS011;8563;52.242;9.098;2023-11-18T03:44:18;35.83;;;24.30;;
16892;SDS011;8563;52.242;9.098;2023-11-18T03:46:50;36.57;;;23.53;;
16892;SDS011;8563;52.242;9.098;2023-11-18T03:49:22;39.57;;;26.07;;
16892;SDS011;8563;52.242;9.098;2023-11-18T03:51:56;46.57;;;30.00;;
16892;SDS011;8563;52.242;9.098;2023-11-18T03:54:28;38.60;;;25.23;;
16892;SDS011;8563;52.242;9.098;2023-11-18T03:57:00;45.40;;;28.50;;
16892;SDS011;8563;52.242;9.098;2023-11-18T03:59:34;45.43;;;27.97;;
16892;SDS011;8563;52.242;9.098;2023-11-18T04:02:07;45.47;;;27.47;;
16892;SDS011;8563;52.242;9.098;2023-11-18T04:04:41;45.73;;;28.77;;
16892;SDS011;8563;52.242;9.098;2023-11-18T04:07:13;47.50;;;28.60;;
16892;SDS011;8563;52.242;9.098;2023-11-18T04:09:46;50.87;;;29.17;;
16892;SDS011;8563;52.242;9.098;2023-11-18T04:12:18;42.37;;;27.27;;
16892;SDS011;8563;52.242;9.098;2023-11-18T04:14:52;51.93;;;31.30;;
16892;SDS011;8563;52.242;9.098;2023-11-18T04:17:24;52.67;;;29.23;;
16892;SDS011;8563;52.242;9.098;2023-11-18T04:19:58;50.00;;;30.80;;
16892;SDS011;8563;52.242;9.098;2023-11-18T04:22:30;47.80;;;29.73;;
16892;SDS011;8563;52.242;9.098;2023-11-18T04:25:03;55.33;;;31.13;;
16892;SDS011;8563;52.242;9.098;2023-11-18T04:27:36;54.90;;;30.80;;
16892;SDS011;8563;52.242;9.098;2023-11-18T04:30:10;56.80;;;33.03;;
16892;SDS011;8563;52.242;9.098;2023-11-18T04:32:43;49.27;;;29.33;;
16892;SDS011;8563;52.242;9.098;2023-11-18T04:35:15;46.13;;;28.43;;
16892;SDS011;8563;52.242;9.098;2023-11-18T04:37:48;53.47;;;31.73;;
16892;SDS011;8563;52.242;9.098;2023-11-18T04:40:20;51.67;;;30.80;;
16892;SDS011;8563;52.242;9.098;2023-11-18T04:42:53;51.27;;;31.40;;
16892;SDS011;8563;52.242;9.098;2023-11-18T04:45:27;52.20;;;29.60;;
16892;SDS011;8563;52.242;9.098;2023-11-18T04:48:00;48.30;;;29.03;;
16892;SDS011;8563;52.242;9.098;2023-11-18T04:50:33;46.83;;;28.43;;
16892;SDS011;8563;52.242;9.098;2023-11-18T04:53:06;50.43;;;30.23;;
16892;SDS011;8563;52.242;9.098;2023-11-18T04:55:40;57.17;;;31.47;;
16892;SDS011;8563;52.242;9.098;2023-11-18T04:58:13;53.97;;;30.50;;
16892;SDS011;8563;52.242;9.098;2023-11-18T05:00:47;50.17;;;29.83;;
16892;SDS011;8563;52.242;9.098;2023-11-18T05:03:20;46.07;;;28.37;;
16892;SDS011;8563;52.242;9.098;2023-11-18T05:05:54;55.17;;;30.07;;
16892;SDS011;8563;52.242;9.098;2023-11-18T05:08:26;49.00;;;29.03;;
16892;SDS011;8563;52.242;9.098;2023-11-18T05:10:59;46.67;;;26.93;;
16892;SDS011;8563;52.242;9.098;2023-11-18T05:13:31;48.67;;;28.17;;
16892;SDS011;8563;52.242;9.098;2023-11-18T05:16:05;48.47;;;30.43;;
16892;SDS011;8563;52.242;9.098;2023-11-18T05:18:38;49.77;;;29.87;;
16892;SDS011;8563;52.242;9.098;2023-11-18T05:21:11;49.30;;;28.63;;
16892;SDS011;8563;52.242;9.098;2023-11-18T05:23:43;48.27;;;28.80;;
16892;SDS011;8563;52.242;9.098;2023-11-18T05:26:15;43.83;;;27.07;;
16892;SDS011;8563;52.242;9.098;2023-11-18T05:28:48;45.33;;;27.13;;
16892;SDS011;8563;52.242;9.098;2023-11-18T05:31:22;46.13;;;28.13;;
16892;SDS011;8563;52.242;9.098;2023-11-18T05:33:54;49.20;;;29.27;;
16892;SDS011;8563;52.242;9.098;2023-11-18T05:36:26;49.40;;;30.37;;
16892;SDS011;8563;52.242;9.098;2023-11-18T05:39:07;47.33;;;28.63;;
16892;SDS011;8563;52.242;9.098;2023-11-18T05:41:41;49.13;;;29.63;;
16892;SDS011;8563;52.242;9.098;2023-11-18T05:44:16;47.33;;;29.43;;
16892;SDS011;8563;52.242;9.098;2023-11-18T05:46:51;45.73;;;29.40;;
16892;SDS011;8563;52.242;9.098;2023-11-18T05:49:23;50.33;;;30.87;;
16892;SDS011;8563;52.242;9.098;2023-11-18T05:51:56;48.47;;;29.40;;
16892;SDS011;8563;52.242;9.098;2023-11-18T05:54:28;46.00;;;27.50;;
16892;SDS011;8563;52.242;9.098;2023-11-18T05:57:00;53.13;;;30.53;;
16892;SDS011;8563;52.242;9.098;2023-11-18T05:59:33;47.93;;;28.67;;
16892;SDS011;8563;52.242;9.098;2023-11-18T06:02:07;49.97;;;29.60;;
16892;SDS011;8563;52.242;9.098;2023-11-18T06:04:43;59.53;;;31.47;;
16892;SDS011;8563;52.242;9.098;2023-11-18T06:07:15;49.67;;;28.30;;
16892;SDS011;8563;52.242;9.098;2023-11-18T06:09:49;50.10;;;30.63;;
16892;SDS011;8563;52.242;9.098;2023-11-18T06:12:22;50.10;;;30.97;;
16892;SDS011;8563;52.242;9.098;2023-11-18T06:14:55;49.50;;;29.07;;
16892;SDS011;8563;52.242;9.098;2023-11-18T06:17:29;54.33;;;30.67;;
16892;SDS011;8563;52.242;9.098;2023-11-18T06:20:01;56.63;;;29.90;;
16892;SDS011;8563;52.242;9.098;2023-11-18T06:22:36;55.73;;;31.57;;
16892;SDS011;8563;52.242;9.098;2023-11-18T06:25:08;50.57;;;29.23;;
16892;SDS011;8563;52.242;9.098;2023-11-18T06:27:43;61.83;;;33.17;;
16892;SDS011;8563;52.242;9.098;2023-11-18T06:30:17;60.43;;;33.30;;
16892;SDS011;8563;52.242;9.098;2023-11-18T06:32:53;54.57;;;30.40;;
16892;SDS011;8563;52.242;9.098;2023-11-18T06:35:25;58.47;;;31.77;;
16892;SDS011;8563;52.242;9.098;2023-11-18T06:37:58;58.83;;;33.73;;
16892;SDS011;8563;52.242;9.098;2023-11-18T06:40:30;56.03;;;31.13;;
16892;SDS011;8563;52.242;9.098;2023-11-18T06:43:03;63.10;;;33.93;;
16892;SDS011;8563;52.242;9.098;2023-11-18T06:45:42;51.53;;;30.63;;
16892;SDS011;8563;52.242;9.098;2023-11-18T06:48:16;55.50;;;31.90;;
16892;SDS011;8563;52.242;9.098;2023-11-18T06:50:50;59.03;;;31.73;;
16892;SDS011;8563;52.242;9.098;2023-11-18T06:53:22;49.90;;;29.50;;
16892;SDS011;8563;52.242;9.098;2023-11-18T06:55:56;51.93;;;30.20;;
16892;SDS011;8563;52.242;9.098;2023-11-18T06:58:29;50.27;;;29.30;;
16892;SDS011;8563;52.242;9.098;2023-11-18T07:01:02;55.47;;;31.87;;
16892;SDS011;8563;52.242;9.098;2023-11-18T07:03:37;54.57;;;31.20;;
16892;SDS011;8563;52.242;9.098;2023-11-18T07:06:11;54.77;;;30.97;;
16892;SDS011;8563;52.242;9.098;2023-11-18T07:08:44;52.60;;;30.57;;
16892;SDS011;8563;52.242;9.098;2023-11-18T07:11:19;52.50;;;30.67;;
16892;SDS011;8563;52.242;9.098;2023-11-18T07:13:51;49.20;;;29.40;;
16892;SDS011;8563;52.242;9.098;2023-11-18T07:16:26;51.83;;;30.53;;
16892;SDS011;8563;52.242;9.098;2023-11-18T07:19:00;49.80;;;28.23;;
16892;SDS011;8563;52.242;9.098;2023-11-18T07:21:33;52.67;;;28.10;;
16892;SDS011;8563;52.242;9.098;2023-11-18T07:24:06;47.00;;;27.67;;
16892;SDS011;8563;52.242;9.098;2023-11-18T07:26:39;47.83;;;27.60;;
16892;SDS011;8563;52.242;9.098;2023-11-18T07:29:11;46.13;;;27.20;;
16892;SDS011;8563;52.242;9.098;2023-11-18T07:31:44;46.23;;;26.27;;
16892;SDS011;8563;52.242;9.098;2023-11-18T07:34:18;45.07;;;25.57;;
16892;SDS011;8563;52.242;9.098;2023-11-18T07:36:50;47.60;;;26.33;;
16892;SDS011;8563;52.242;9.098;2023-11-18T07:39:22;50.23;;;25.70;;
16892;SDS011;8563;52.242;9.098;2023-11-18T07:42:13;47.60;;;27.73;;
16892;SDS011;8563;52.242;9.098;2023-11-18T07:44:48;55.73;;;27.70;;
16892;SDS011;8563;52.242;9.098;2023-11-18T07:47:20;55.30;;;27.47;;
16892;SDS011;8563;52.242;9.098;2023-11-18T07:49:54;47.53;;;27.23;;
16892;SDS011;8563;52.242;9.098;2023-11-18T07:52:26;50.63;;;25.83;;
16892;SDS011;8563;52.242;9.098;2023-11-18T07:54:59;47.27;;;25.40;;
16892;SDS011;8563;52.242;9.098;2023-11-18T07:57:31;52.67;;;27.87;;
16892;SDS011;8563;52.242;9.098;2023-11-18T08:00:06;47.80;;;26.50;;
16892;SDS011;8563;52.242;9.098;2023-11-18T08:02:46;44.70;;;23.57;;
16892;SDS011;8563;52.242;9.098;2023-11-18T08:05:20;41.60;;;24.17;;
16892;SDS011;8563;52.242;9.098;2023-11-18T08:07:53;42.60;;;24.37;;
16892;SDS011;8563;52.242;9.098;2023-11-18T08:10:25;43.73;;;24.43;;
16892;SDS011;8563;52.242;9.098;2023-11-18T08:12:59;36.33;;;21.83;;
16892;SDS011;8563;52.242;9.098;2023-11-18T08:15:32;41.33;;;23.47;;
16892;SDS011;8563;52.242;9.098;2023-11-18T08:18:04;41.43;;;23.90;;
16892;SDS011;8563;52.242;9.098;2023-11-18T08:20:38;45.43;;;24.23;;
16892;SDS011;8563;52.242;9.098;2023-11-18T08:23:11;42.30;;;24.47;;
16892;SDS011;8563;52.242;9.098;2023-11-18T08:25:44;36.87;;;21.07;;
16892;SDS011;8563;52.242;9.098;2023-11-18T08:28:16;44.77;;;24.23;;
16892;SDS011;8563;52.242;9.098;2023-11-18T08:30:48;41.50;;;23.33;;
16892;SDS011;8563;52.242;9.098;2023-11-18T08:33:23;36.93;;;22.27;;
16892;SDS011;8563;52.242;9.098;2023-11-18T08:35:57;35.53;;;21.67;;
16892;SDS011;8563;52.242;9.098;2023-11-18T08:38:31;40.27;;;22.00;;
16892;SDS011;8563;52.242;9.098;2023-11-18T08:41:05;35.77;;;20.43;;
16892;SDS011;8563;52.242;9.098;2023-11-18T08:43:39;32.13;;;19.33;;
16892;SDS011;8563;52.242;9.098;2023-11-18T08:46:12;31.27;;;19.23;;
16892;SDS011;8563;52.242;9.098;2023-11-18T08:48:45;31.10;;;18.47;;
16892;SDS011;8563;52.242;9.098;2023-11-18T08:51:19;34.23;;;19.23;;
16892;SDS011;8563;52.242;9.098;2023-11-18T08:53:52;50.03;;;33.93;;
16892;SDS011;8563;52.242;9.098;2023-11-18T08:56:25;31.53;;;19.07;;
16892;SDS011;8563;52.242;9.098;2023-11-18T08:59:05;29.70;;;18.33;;
16892;SDS011;8563;52.242;9.098;2023-11-18T09:01:41;29.57;;;17.27;;
16892;SDS011;8563;52.242;9.098;2023-11-18T09:04:13;25.63;;;15.60;;
16892;SDS011;8563;52.242;9.098;2023-11-18T09:06:51;22.17;;;14.07;;
16892;SDS011;8563;52.242;9.098;2023-11-18T09:09:24;25.53;;;15.60;;
16892;SDS011;8563;52.242;9.098;2023-11-18T09:11:57;26.43;;;14.93;;
16892;SDS011;8563;52.242;9.098;2023-11-18T09:14:31;23.23;;;14.53;;
16892;SDS011;8563;52.242;9.098;2023-11-18T09:17:04;24.27;;;15.37;;
16892;SDS011;8563;52.242;9.098;2023-11-18T09:19:37;21.77;;;13.87;;
16892;SDS011;8563;52.242;9.098;2023-11-18T09:22:11;22.93;;;15.03;;
16892;SDS011;8563;52.242;9.098;2023-11-18T09:24:45;18.90;;;12.83;;
16892;SDS011;8563;52.242;9.098;2023-11-18T09:27:18;16.63;;;12.07;;
16892;SDS011;8563;52.242;9.098;2023-11-18T09:29:50;20.80;;;12.63;;
16892;SDS011;8563;52.242;9.098;2023-11-18T09:32:23;16.73;;;10.70;;
16892;SDS011;8563;52.242;9.098;2023-11-18T09:34:56;13.80;;;10.37;;
16892;SDS011;8563;52.242;9.098;2023-11-18T09:37:30;14.50;;;10.60;;
16892;SDS011;8563;52.242;9.098;2023-11-18T09:40:03;17.23;;;10.50;;
16892;SDS011;8563;52.242;9.098;2023-11-18T09:42:41;13.87;;;9.47;;
16892;SDS011;8563;52.242;9.098;2023-11-18T09:45:14;15.50;;;9.33;;
16892;SDS011;8563;52.242;9.098;2023-11-18T09:47:50;15.63;;;9.13;;
16892;SDS011;8563;52.242;9.098;2023-11-18T09:50:25;12.00;;;8.10;;
16892;SDS011;8563;52.242;9.098;2023-11-18T09:53:01;14.57;;;9.13;;
16892;SDS011;8563;52.242;9.098;2023-11-18T09:55:43;12.60;;;8.67;;
16892;SDS011;8563;52.242;9.098;2023-11-18T09:58:17;16.33;;;8.23;;
16892;SDS011;8563;52.242;9.098;2023-11-18T10:00:55;10.93;;;7.80;;
16892;SDS011;8563;52.242;9.098;2023-11-18T10:03:32;12.23;;;8.07;;
16892;SDS011;8563;52.242;9.098;2023-11-18T10:06:06;11.40;;;8.03;;
16892;SDS011;8563;52.242;9.098;2023-11-18T10:08:40;14.43;;;7.87;;
16892;SDS011;8563;52.242;9.098;2023-11-18T10:11:16;11.00;;;7.47;;
16892;SDS011;8563;52.242;9.098;2023-11-18T10:13:48;11.40;;;8.23;;
16892;SDS011;8563;52.242;9.098;2023-11-18T10:16:21;12.77;;;8.40;;
16892;SDS011;8563;52.242;9.098;2023-11-18T10:18:57;9.30;;;7.50;;
16892;SDS011;8563;52.242;9.098;2023-11-18T10:21:34;11.73;;;7.17;;
16892;SDS011;8563;52.242;9.098;2023-11-18T10:24:11;9.47;;;6.63;;
16892;SDS011;8563;52.242;9.098;2023-11-18T10:26:44;12.20;;;7.33;;
16892;SDS011;8563;52.242;9.098;2023-11-18T10:29:18;13.83;;;7.10;;
16892;SDS011;8563;52.242;9.098;2023-11-18T10:31:50;9.73;;;7.33;;
16892;SDS011;8563;52.242;9.098;2023-11-18T10:34:38;11.43;;;8.33;;
16892;SDS011;8563;52.242;9.098;2023-11-18T10:37:11;10.70;;;7.33;;
16892;SDS011;8563;52.242;9.098;2023-11-18T10:39:47;12.03;;;8.93;;
16892;SDS011;8563;52.242;9.098;2023-11-18T10:42:21;9.80;;;7.87;;
16892;SDS011;8563;52.242;9.098;2023-11-18T10:44:54;8.87;;;7.17;;
16892;SDS011;8563;52.242;9.098;2023-11-18T10:47:28;10.37;;;7.40;;
16892;SDS011;8563;52.242;9.098;2023-11-18T10:50:00;11.13;;;7.50;;
16892;SDS011;8563;52.242;9.098;2023-11-18T10:52:33;10.43;;;7.63;;
16892;SDS011;8563;52.242;9.098;2023-11-18T10:55:09;10.27;;;7.53;;
16892;SDS011;8563;52.242;9.098;2023-11-18T10:57:42;11.53;;;7.90;;
16892;SDS011;8563;52.242;9.098;2023-11-18T11:00:14;10.70;;;7.87;;
16892;SDS011;8563;52.242;9.098;2023-11-18T11:02:49;9.03;;;7.73;;
16892;SDS011;8563;52.242;9.098;2023-11-18T11:05:30;8.83;;;6.97;;
16892;SDS011;8563;52.242;9.098;2023-11-18T11:08:03;9.47;;;6.83;;
16892;SDS011;8563;52.242;9.098;2023-11-18T11:10:37;9.10;;;7.10;;
16892;SDS011;8563;52.242;9.098;2023-11-18T11:13:12;7.60;;;6.30;;
16892;SDS011;8563;52.242;9.098;2023-11-18T11:15:47;10.33;;;6.87;;
16892;SDS011;8563;52.242;9.098;2023-11-18T11:18:23;8.40;;;6.50;;
16892;SDS011;8563;52.242;9.098;2023-11-18T11:21:02;8.30;;;7.03;;
16892;SDS011;8563;52.242;9.098;2023-11-18T11:23:40;9.97;;;6.13;;
16892;SDS011;8563;52.242;9.098;2023-11-18T11:26:23;7.03;;;6.00;;
16892;SDS011;8563;52.242;9.098;2023-11-18T11:29:01;8.33;;;6.77;;
16892;SDS011;8563;52.242;9.098;2023-11-18T11:31:38;8.33;;;6.93;;
16892;SDS011;8563;52.242;9.098;2023-11-18T11:34:12;7.83;;;6.57;;
16892;SDS011;8563;52.242;9.098;2023-11-18T11:36:46;8.33;;;7.07;;
16892;SDS011;8563;52.242;9.098;2023-11-18T11:39:21;7.63;;;6.37;;
16892;SDS011;8563;52.242;9.098;2023-11-18T11:41:57;9.13;;;7.47;;
16892;SDS011;8563;52.242;9.098;2023-11-18T11:44:29;8.83;;;7.37;;
16892;SDS011;8563;52.242;9.098;2023-11-18T11:47:03;8.90;;;6.67;;
16892;SDS011;8563;52.242;9.098;2023-11-18T11:49:39;8.97;;;7.27;;
16892;SDS011;8563;52.242;9.098;2023-11-18T11:52:15;11.03;;;9.17;;
16892;SDS011;8563;52.242;9.098;2023-11-18T11:54:52;9.93;;;7.47;;
16892;SDS011;8563;52.242;9.098;2023-11-18T11:57:28;10.10;;;7.33;;
16892;SDS011;8563;52.242;9.098;2023-11-18T12:00:02;10.50;;;7.60;;
16892;SDS011;8563;52.242;9.098;2023-11-18T12:02:48;10.03;;;7.47;;
16892;SDS011;8563;52.242;9.098;2023-11-18T12:05:23;8.07;;;6.73;;
16892;SDS011;8563;52.242;9.098;2023-11-18T12:07:56;10.20;;;7.30;;
16892;SDS011;8563;52.242;9.098;2023-11-18T12:10:29;8.43;;;6.93;;
16892;SDS011;8563;52.242;9.098;2023-11-18T12:13:12;10.13;;;7.07;;
16892;SDS011;8563;52.242;9.098;2023-11-18T12:15:49;8.70;;;7.80;;
16892;SDS011;8563;52.242;9.098;2023-11-18T12:18:27;8.47;;;7.43;;
16892;SDS011;8563;52.242;9.098;2023-11-18T12:21:02;11.00;;;7.47;;
16892;SDS011;8563;52.242;9.098;2023-11-18T12:23:35;9.13;;;7.27;;
16892;SDS011;8563;52.242;9.098;2023-11-18T12:26:37;8.60;;;7.70;;
16892;SDS011;8563;52.242;9.098;2023-11-18T12:31:58;8.50;;;6.93;;
16892;SDS011;8563;52.242;9.098;2023-11-18T12:37:38;9.20;;;7.77;;
16892;SDS011;8563;52.242;9.098;2023-11-18T12:40:23;8.50;;;7.50;;
16892;SDS011;8563;52.242;9.098;2023-11-18T12:42:59;8.50;;;7.00;;
16892;SDS011;8563;52.242;9.098;2023-11-18T12:45:52;8.97;;;7.13;;
16892;SDS011;8563;52.242;9.098;2023-11-18T12:48:33;9.87;;;7.40;;
16892;SDS011;8563;52.242;9.098;2023-11-18T12:51:07;8.93;;;7.27;;
16892;SDS011;8563;52.242;9.098;2023-11-18T12:53:47;8.10;;;7.00;;
16892;SDS011;8563;52.242;9.098;2023-11-18T12:56:20;7.30;;;6.60;;
16892;SDS011;8563;52.242;9.098;2023-11-18T12:58:54;10.47;;;6.83;;
16892;SDS011;8563;52.242;9.098;2023-11-18T13:01:26;9.10;;;6.93;;
16892;SDS011;8563;52.242;9.098;2023-11-18T13:04:01;9.37;;;7.57;;
16892;SDS011;8563;52.242;9.098;2023-11-18T13:06:34;10.90;;;7.93;;
16892;SDS011;8563;52.242;9.098;2023-11-18T13:09:07;10.53;;;7.23;;
16892;SDS011;8563;52.242;9.098;2023-11-18T13:11:41;8.03;;;6.17;;
16892;SDS011;8563;52.242;9.098;2023-11-18T13:14:13;6.43;;;5.53;;
16892;SDS011;8563;52.242;9.098;2023-11-18T13:16:47;9.10;;;5.80;;
16892;SDS011;8563;52.242;9.098;2023-11-18T13:19:25;8.57;;;5.93;;
16892;SDS011;8563;52.242;9.098;2023-11-18T13:21:58;7.10;;;6.10;;
16892;SDS011;8563;52.242;9.098;2023-11-18T13:24:30;6.90;;;6.03;;
16892;SDS011;8563;52.242;9.098;2023-11-18T13:27:03;8.37;;;6.43;;
16892;SDS011;8563;52.242;9.098;2023-11-18T13:29:37;8.47;;;5.90;;
16892;SDS011;8563;52.242;9.098;2023-11-18T13:32:10;8.10;;;6.00;;
16892;SDS011;8563;52.242;9.098;2023-11-18T13:34:44;8.37;;;5.77;;
16892;SDS011;8563;52.242;9.098;2023-11-18T13:37:16;7.90;;;6.23;;
16892;SDS011;8563;52.242;9.098;2023-11-18T13:39:55;6.80;;;6.10;;
16892;SDS011;8563;52.242;9.098;2023-11-18T13:42:29;7.53;;;5.53;;
16892;SDS011;8563;52.242;9.098;2023-11-18T13:45:03;6.93;;;5.80;;
16892;SDS011;8563;52.242;9.098;2023-11-18T13:47:38;7.83;;;6.00;;
16892;SDS011;8563;52.242;9.098;2023-11-18T13:50:15;8.27;;;5.60;;
16892;SDS011;8563;52.242;9.098;2023-11-18T13:52:49;7.57;;;6.20;;
16892;SDS011;8563;52.242;9.098;2023-11-18T13:55:22;8.57;;;5.70;;
16892;SDS011;8563;52.242;9.098;2023-11-18T13:57:57;6.30;;;5.43;;
16892;SDS011;8563;52.242;9.098;2023-11-18T14:00:30;6.40;;;5.40;;
16892;SDS011;8563;52.242;9.098;2023-11-18T14:03:03;7.50;;;5.80;;
16892;SDS011;8563;52.242;9.098;2023-11-18T14:05:38;7.13;;;6.13;;
16892;SDS011;8563;52.242;9.098;2023-11-18T14:08:10;7.50;;;5.80;;
16892;SDS011;8563;52.242;9.098;2023-11-18T14:10:43;7.40;;;5.60;;
16892;SDS011;8563;52.242;9.098;2023-11-18T14:13:15;5.63;;;5.00;;
16892;SDS011;8563;52.242;9.098;2023-11-18T14:15:49;6.23;;;5.20;;
16892;SDS011;8563;52.242;9.098;2023-11-18T14:18:25;5.53;;;4.97;;
16892;SDS011;8563;52.242;9.098;2023-11-18T14:20:59;6.23;;;5.30;;
16892;SDS011;8563;52.242;9.098;2023-11-18T14:23:32;6.63;;;5.07;;
16892;SDS011;8563;52.242;9.098;2023-11-18T14:26:05;6.37;;;5.30;;
16892;SDS011;8563;52.242;9.098;2023-11-18T14:28:37;7.83;;;5.50;;
16892;SDS011;8563;52.242;9.098;2023-11-18T14:31:10;8.13;;;5.20;;
16892;SDS011;8563;52.242;9.098;2023-11-18T14:33:43;6.00;;;5.40;;
16892;SDS011;8563;52.242;9.098;2023-11-18T14:36:17;8.07;;;6.27;;
16892;SDS011;8563;52.242;9.098;2023-11-18T14:38:50;6.93;;;5.50;;
16892;SDS011;8563;52.242;9.098;2023-11-18T14:41:22;7.73;;;5.83;;
16892;SDS011;8563;52.242;9.098;2023-11-18T14:43:57;8.20;;;5.40;;
16892;SDS011;8563;52.242;9.098;2023-11-18T14:46:31;6.63;;;5.93;;
16892;SDS011;8563;52.242;9.098;2023-11-18T14:49:03;8.23;;;6.50;;
16892;SDS011;8563;52.242;9.098;2023-11-18T14:51:38;7.60;;;6.40;;
16892;SDS011;8563;52.242;9.098;2023-11-18T14:54:10;9.53;;;6.60;;
16892;SDS011;8563;52.242;9.098;2023-11-18T14:56:43;7.67;;;6.57;;
16892;SDS011;8563;52.242;9.098;2023-11-18T14:59:19;8.73;;;6.90;;
16892;SDS011;8563;52.242;9.098;2023-11-18T15:01:52;7.97;;;7.13;;
16892;SDS011;8563;52.242;9.098;2023-11-18T15:04:27;7.67;;;6.60;;
16892;SDS011;8563;52.242;9.098;2023-11-18T15:07:01;9.13;;;6.63;;
16892;SDS011;8563;52.242;9.098;2023-11-18T15:09:34;7.33;;;6.07;;
16892;SDS011;8563;52.242;9.098;2023-11-18T15:12:06;7.37;;;6.30;;
16892;SDS011;8563;52.242;9.098;2023-11-18T15:14:39;8.97;;;5.70;;
16892;SDS011;8563;52.242;9.098;2023-11-18T15:17:13;8.77;;;6.90;;
16892;SDS011;8563;52.242;9.098;2023-11-18T15:19:45;7.97;;;7.03;;
16892;SDS011;8563;52.242;9.098;2023-11-18T15:22:19;7.47;;;6.47;;
16892;SDS011;8563;52.242;9.098;2023-11-18T15:24:53;7.30;;;6.37;;
16892;SDS011;8563;52.242;9.098;2023-11-18T15:27:29;8.70;;;7.00;;
16892;SDS011;8563;52.242;9.098;2023-11-18T15:30:03;8.23;;;6.50;;